Time;durP1;ratioP1;P1;durP2;ratioP2;P2;SDS_P1;SDS_P2;PMS_P1;PMS_P2;Temp;Humidity;BMP_temperature;BMP_pressure;BME280_temperature;BME280_humidity;BME280_pressure;Samples;Min_cycle;Max_cycle;Signal;HPM_P1;HPM_P2
2022/06/22 00:01:31;;;;;;;1.57;1.00;;;;;;;14.75;63.26;100577.03;4986251;28;20217;-83
2022/06/22 00:04:00;;;;;;;1.30;1.20;;;;;;;14.71;63.52;100594.34;4991316;28;20238;-83
2022/06/22 00:06:34;;;;;;;1.60;1.37;;;;;;;14.65;63.24;100591.34;4990083;28;20231;-83
2022/06/22 00:09:02;;;;;;;2.03;1.00;;;;;;;14.59;63.73;100588.16;4982690;28;20207;-83
2022/06/22 00:11:29;;;;;;;1.80;1.30;;;;;;;14.54;63.95;100595.72;4991719;28;20617;-83
2022/06/22 00:13:59;;;;;;;3.20;1.33;;;;;;;14.48;64.23;100596.22;4982481;28;20923;-82
2022/06/22 00:16:28;;;;;;;1.97;1.40;;;;;;;14.43;64.53;100589.53;4986270;28;20214;-82
2022/06/22 00:18:55;;;;;;;0.90;0.90;;;;;;;14.36;64.36;100590.94;4977186;28;20208;-82
2022/06/22 00:21:26;;;;;;;1.63;1.00;;;;;;;14.28;64.78;100591.56;4984597;28;20219;-83
2022/06/22 00:23:57;;;;;;;1.40;1.30;;;;;;;14.17;64.72;100594.22;4979383;28;20282;-82
2022/06/22 00:26:36;;;;;;;2.50;1.67;;;;;;;14.10;65.27;100601.06;4987013;28;20581;-82
2022/06/22 00:29:20;;;;;;;2.00;1.20;;;;;;;14.03;65.81;100600.69;4986495;28;21070;-82
2022/06/22 00:32:00;;;;;;;2.60;1.30;;;;;;;14.01;66.24;100599.09;4980580;28;20212;-82
2022/06/22 00:34:29;;;;;;;3.33;1.40;;;;;;;14.01;66.57;100599.94;4986420;28;20556;-82
2022/06/22 00:36:59;;;;;;;1.60;1.30;;;;;;;13.98;66.49;100608.22;4981479;28;20208;-82
2022/06/22 00:39:38;;;;;;;2.30;1.30;;;;;;;13.93;66.39;100612.25;4984565;28;20230;-82
2022/06/22 00:42:21;;;;;;;1.33;1.23;;;;;;;13.84;66.16;100609.28;4984078;28;20203;-83
2022/06/22 00:44:52;;;;;;;2.47;1.60;;;;;;;13.73;66.76;100601.25;4989870;28;20282;-82
2022/06/22 00:47:25;;;;;;;2.93;1.17;;;;;;;13.67;66.92;100600.88;4983390;28;20682;-82
2022/06/22 00:49:55;;;;;;;1.93;1.47;;;;;;;13.61;67.54;100594.19;4986844;28;20203;-82
2022/06/22 00:52:28;;;;;;;2.40;1.30;;;;;;;13.56;67.64;100607.06;4983324;28;20235;-82
2022/06/22 00:54:56;;;;;;;3.30;1.47;;;;;;;13.48;68.26;100610.28;4975843;28;20200;-82
2022/06/22 00:57:29;;;;;;;1.80;1.60;;;;;;;13.46;68.91;100612.22;4984172;28;20234;-82
2022/06/22 01:00:01;;;;;;;2.73;1.50;;;;;;;13.48;68.95;100617.47;4981912;28;20204;-82
2022/06/22 01:02:37;;;;;;;3.83;1.90;;;;;;;13.50;69.01;100615.53;4982062;28;20227;-81
2022/06/22 01:05:16;;;;;;;3.27;1.70;;;;;;;13.52;69.04;100616.28;4981676;28;20234;-81
2022/06/22 01:07:50;;;;;;;2.20;1.40;;;;;;;13.49;69.21;100608.47;4983697;28;20202;-81
2022/06/22 01:10:25;;;;;;;3.53;1.50;;;;;;;13.46;69.43;100608.69;4988769;28;20621;-81
2022/06/22 01:12:57;;;;;;;2.60;1.90;;;;;;;13.42;69.23;100613.47;4984346;28;20724;-81
2022/06/22 01:15:31;;;;;;;1.93;1.70;;;;;;;13.38;69.50;100611.13;4988585;28;20215;-81
2022/06/22 01:18:08;;;;;;;2.70;1.80;;;;;;;13.33;69.38;100606.13;4990469;28;20199;-81
2022/06/22 01:20:47;;;;;;;2.50;2.20;;;;;;;13.31;69.79;100613.41;4982631;28;20211;-81
2022/06/22 01:23:41;;;;;;;1.90;1.70;;;;;;;13.28;69.80;100602.91;4980128;28;20230;-81
2022/06/22 01:26:25;;;;;;;2.53;1.57;;;;;;;13.22;70.12;100598.06;4981227;28;20212;-82
2022/06/22 01:28:54;;;;;;;2.73;1.57;;;;;;;13.17;70.31;100590.38;4984017;28;20210;-82
2022/06/22 01:31:21;;;;;;;2.77;1.63;;;;;;;13.15;70.23;100586.97;4983016;28;20218;-82
2022/06/22 01:33:50;;;;;;;1.73;1.60;;;;;;;13.13;70.46;100591.53;4979711;28;20228;-81
2022/06/22 01:36:22;;;;;;;1.33;1.23;;;;;;;13.08;70.29;100590.16;4975065;28;20208;-82
2022/06/22 01:38:49;;;;;;;2.87;1.83;;;;;;;13.04;70.73;100592.22;4973457;28;20208;-82
2022/06/22 01:41:27;;;;;;;2.33;1.50;;;;;;;13.00;70.93;100587.22;4986405;28;20546;-82
2022/06/22 01:44:01;;;;;;;2.17;1.60;;;;;;;13.00;70.96;100582.72;4987351;28;20226;-81
2022/06/22 01:46:39;;;;;;;4.07;1.70;;;;;;;13.00;71.05;100574.69;4984147;28;20212;-81
2022/06/22 01:49:12;;;;;;;2.63;1.40;;;;;;;12.96;71.06;100575.03;4989396;28;20203;-81
2022/06/22 01:51:44;;;;;;;2.83;1.87;;;;;;;12.91;71.12;100572.69;4986209;28;20215;-81
2022/06/22 01:54:18;;;;;;;2.63;1.70;;;;;;;12.90;71.27;100573.66;4988573;28;20237;-82
2022/06/22 01:56:49;;;;;;;1.50;1.40;;;;;;;12.91;71.40;100566.50;4989406;28;20617;-81
2022/06/22 01:59:27;;;;;;;4.83;1.83;;;;;;;12.90;71.79;100570.16;4984180;28;20600;-82
2022/06/22 02:02:00;;;;;;;3.00;1.67;;;;;;;12.90;71.73;100568.31;4984444;28;20236;-81
2022/06/22 02:04:34;;;;;;;3.53;1.90;;;;;;;12.90;71.43;100556.81;4982257;28;20214;-82
2022/06/22 02:10:03;;;;;;;2.17;1.90;;;;;;;12.88;71.78;100556.06;4986050;28;20228;-81
2022/06/22 02:12:40;;;;;;;3.40;1.97;;;;;;;12.84;71.64;100558.97;4980635;28;20242;-81
2022/06/22 02:15:17;;;;;;;4.53;2.07;;;;;;;12.79;71.30;100557.59;4991255;28;20203;-81
2022/06/22 02:17:45;;;;;;;5.97;2.13;;;;;;;12.72;71.82;100553.69;4982915;28;20219;-81
2022/06/22 02:20:34;;;;;;;3.40;2.67;;;;;;;12.67;71.38;100550.47;4982245;28;20204;-81
2022/06/22 02:23:10;;;;;;;3.77;2.53;;;;;;;12.60;71.59;100547.41;4984037;28;20231;-82
2022/06/22 02:25:45;;;;;;;3.43;2.50;;;;;;;12.55;71.32;100546.00;4979797;28;20216;-82
2022/06/22 02:28:11;;;;;;;5.67;2.67;;;;;;;12.46;71.64;100540.41;4986148;28;20664;-82
2022/06/22 02:30:40;;;;;;;4.93;3.00;;;;;;;12.41;71.94;100537.19;4988023;28;20215;-81
2022/06/22 02:33:08;;;;;;;5.40;3.13;;;;;;;12.37;72.17;100529.50;4984692;28;20618;-81
2022/06/22 02:35:38;;;;;;;3.23;2.60;;;;;;;12.31;72.12;100520.16;4985645;28;20203;-81
2022/06/22 02:38:09;;;;;;;6.10;3.00;;;;;;;12.26;72.61;100526.78;4984218;28;20579;-81
2022/06/22 02:46:09;;;;;;;4.77;3.00;;;;;;;12.20;73.78;100538.75;4982843;28;20245;-82
2022/06/22 02:48:37;;;;;;;5.07;2.80;;;;;;;12.23;73.96;100537.66;4975640;28;20212;-80
2022/06/22 02:51:17;;;;;;;6.43;2.77;;;;;;;12.24;73.97;100534.91;4987668;28;20649;-82
2022/06/22 02:53:45;;;;;;;3.07;2.43;;;;;;;12.26;74.00;100532.97;4988281;28;20246;-81
2022/06/22 02:56:17;;;;;;;4.07;2.27;;;;;;;12.27;73.99;100528.47;4988160;28;20206;-81
2022/06/22 02:58:44;;;;;;;4.43;2.70;;;;;;;12.28;73.92;100524.84;4982609;28;20229;-82
2022/06/22 03:01:16;;;;;;;4.30;2.60;;;;;;;12.28;73.96;100532.88;4989568;28;20274;-82
2022/06/22 03:03:47;;;;;;;4.50;2.40;;;;;;;12.28;73.90;100530.19;4989375;28;20228;-82
2022/06/22 03:06:15;;;;;;;5.03;2.57;;;;;;;12.27;73.54;100534.69;4984819;28;20235;-81
2022/06/22 03:08:42;;;;;;;2.73;2.50;;;;;;;12.25;73.69;100515.25;4984412;28;20202;-82
2022/06/22 03:11:11;;;;;;;4.93;2.37;;;;;;;12.22;73.42;100517.28;4979003;28;20206;-82
2022/06/22 03:13:41;;;;;;;4.67;2.30;;;;;;;12.16;73.28;100530.13;4982304;28;20236;-81
2022/06/22 03:16:15;;;;;;;4.00;2.40;;;;;;;12.12;73.54;100525.97;4984265;28;20206;-82
2022/06/22 03:18:44;;;;;;;7.00;3.27;;;;;;;12.12;73.61;100547.31;4987221;28;20209;-82
2022/06/22 03:21:14;;;;;;;4.67;3.60;;;;;;;12.12;74.47;100536.63;4988539;28;20244;-82
2022/06/22 03:23:48;;;;;;;7.33;4.53;;;;;;;12.17;75.28;100539.00;4985031;28;20228;-81
2022/06/22 03:26:19;;;;;;;4.50;4.10;;;;;;;12.23;76.02;100546.53;4984412;28;20223;-81
2022/06/22 03:28:50;;;;;;;6.67;4.60;;;;;;;12.31;76.65;100556.69;4981390;28;20207;-81
2022/06/22 03:31:24;;;;;;;8.50;5.10;;;;;;;12.35;77.21;100553.69;4985604;28;20216;-82
2022/06/22 03:33:54;;;;;;;6.53;4.70;;;;;;;12.42;77.53;100554.06;4985492;28;20235;-81
2022/06/22 03:36:26;;;;;;;7.77;4.30;;;;;;;12.47;77.94;100546.59;4980146;28;20206;-81
2022/06/22 03:38:58;;;;;;;4.67;4.23;;;;;;;12.49;77.86;100550.00;4985821;28;20848;-82
2022/06/22 03:41:28;;;;;;;6.70;4.60;;;;;;;12.53;78.32;100562.19;4983671;28;20213;-82
2022/06/22 03:43:59;;;;;;;5.20;4.57;;;;;;;12.56;78.40;100555.72;4987712;28;20233;-80
2022/06/22 03:46:32;;;;;;;6.30;3.97;;;;;;;12.58;78.62;100561.81;4983832;28;20588;-82
2022/06/22 03:49:02;;;;;;;5.70;4.70;;;;;;;12.60;78.66;100551.88;4984592;28;20217;-81
2022/06/22 03:51:32;;;;;;;6.03;4.73;;;;;;;12.62;78.66;100563.31;4992598;28;20209;-81
2022/06/22 03:54:20;;;;;;;5.27;4.57;;;;;;;12.66;78.69;100570.16;4982716;28;20239;-81
2022/06/22 03:56:51;;;;;;;7.77;5.10;;;;;;;12.68;78.42;100576.22;4988394;28;20207;-82
2022/06/22 03:59:18;;;;;;;6.83;4.70;;;;;;;12.72;79.02;100580.41;4987669;28;20204;-81
2022/06/22 04:01:46;;;;;;;6.53;4.47;;;;;;;12.75;78.71;100572.13;4983677;28;20329;-81
2022/06/22 04:04:13;;;;;;;6.17;4.97;;;;;;;12.78;78.96;100561.22;4980650;28;20247;-82
2022/06/22 04:06:44;;;;;;;5.73;4.07;;;;;;;12.80;78.61;100559.28;4982823;28;20234;-82
2022/06/22 04:09:14;;;;;;;5.30;4.80;;;;;;;12.84;78.78;100568.78;4982517;28;20200;-82
2022/06/22 04:11:48;;;;;;;5.00;4.60;;;;;;;12.87;78.75;100560.56;4982851;28;20227;-81
2022/06/22 04:14:20;;;;;;;7.60;5.20;;;;;;;12.90;78.24;100559.47;4992722;28;20223;-81
2022/06/22 04:16:53;;;;;;;5.73;4.73;;;;;;;12.92;78.23;100569.06;4987676;28;20215;-81
2022/06/22 04:19:23;;;;;;;6.23;4.77;;;;;;;12.95;78.21;100578.69;4983607;28;20214;-81
2022/06/22 04:21:53;;;;;;;7.90;4.77;;;;;;;12.97;78.25;100566.06;4983354;28;20622;-81
2022/06/22 04:24:24;;;;;;;6.03;4.60;;;;;;;13.00;78.26;100563.16;4981325;28;20657;-82
2022/06/22 04:26:55;;;;;;;7.40;4.30;;;;;;;13.03;77.99;100569.13;4981152;28;20212;-82
2022/06/22 04:29:33;;;;;;;6.27;4.90;;;;;;;13.06;78.14;100563.56;4982609;28;20213;-82
2022/06/22 04:32:04;;;;;;;6.87;4.80;;;;;;;13.09;77.66;100549.94;4984580;28;20195;-83
2022/06/22 04:34:38;;;;;;;9.20;4.50;;;;;;;13.12;77.73;100551.53;4983960;28;20207;-82
2022/06/22 04:37:10;;;;;;;5.27;4.27;;;;;;;13.13;77.16;100546.06;4982111;28;20195;-82
2022/06/22 04:39:42;;;;;;;5.63;4.43;;;;;;;13.16;77.47;100542.34;4987260;28;20207;-82
2022/06/22 04:42:10;;;;;;;15.30;8.67;;;;;;;13.18;77.28;100546.63;4988993;28;20208;-83
2022/06/22 04:44:42;;;;;;;5.13;4.67;;;;;;;13.19;77.20;100542.97;4983196;28;20207;-84
2022/06/22 04:47:17;;;;;;;6.60;5.03;;;;;;;13.19;77.03;100556.34;4985951;28;20222;-82
2022/06/22 04:49:50;;;;;;;5.10;4.63;;;;;;;13.20;76.68;100558.06;4985742;28;20210;-83
2022/06/22 04:52:22;;;;;;;7.60;4.70;;;;;;;13.22;76.87;100557.09;4982140;28;20680;-81
2022/06/22 04:54:54;;;;;;;6.13;4.60;;;;;;;13.24;77.05;100568.53;4984199;28;20682;-83
2022/06/22 04:57:24;;;;;;;6.17;4.10;;;;;;;13.27;76.84;100573.63;4986877;28;20212;-82
2022/06/22 04:59:51;;;;;;;6.83;4.47;;;;;;;13.29;76.88;100566.34;4987237;28;20220;-82
2022/06/22 05:02:22;;;;;;;5.13;4.43;;;;;;;13.31;76.92;100561.72;4985193;28;20307;-81
2022/06/22 05:04:52;;;;;;;6.33;4.57;;;;;;;13.35;76.78;100572.06;4990654;28;20672;-81
2022/06/22 05:07:31;;;;;;;7.40;4.90;;;;;;;13.39;76.54;100570.03;4987200;28;20251;-82
2022/06/22 05:10:02;;;;;;;7.83;5.13;;;;;;;13.42;76.34;100577.81;4979432;28;20625;-81
2022/06/22 05:12:32;;;;;;;5.63;4.87;;;;;;;13.47;76.69;100597.03;4991260;28;20229;-81
2022/06/22 05:15:01;;;;;;;8.10;4.83;;;;;;;13.51;76.82;100596.69;4982829;28;20294;-82
2022/06/22 05:17:32;;;;;;;7.93;5.07;;;;;;;13.59;76.80;100598.78;4987282;28;20202;-81
2022/06/22 05:20:05;;;;;;;5.60;4.47;;;;;;;13.66;77.31;100591.13;4986779;28;20201;-81
2022/06/22 05:22:32;;;;;;;5.70;5.07;;;;;;;13.73;77.35;100593.22;4983372;28;20220;-82
2022/06/22 05:25:02;;;;;;;5.63;4.57;;;;;;;13.83;77.33;100591.53;4985574;28;20828;-82
2022/06/22 05:27:34;;;;;;;11.43;4.70;;;;;;;13.90;76.76;100589.25;4989661;28;20581;-82
2022/06/22 05:30:05;;;;;;;6.73;4.93;;;;;;;13.97;76.48;100592.28;4988625;28;20239;-83
2022/06/22 05:32:45;;;;;;;8.13;5.10;;;;;;;14.03;76.29;100591.78;4982168;28;20316;-82
2022/06/22 05:35:14;;;;;;;9.30;5.03;;;;;;;14.13;76.37;100600.81;4991485;28;20287;-83
2022/06/22 05:37:44;;;;;;;6.07;4.40;;;;;;;14.23;75.90;100596.44;4990617;28;20208;-83
2022/06/22 05:40:13;;;;;;;6.93;4.53;;;;;;;14.35;75.54;100605.31;4988280;28;20215;-84
2022/06/22 05:42:40;;;;;;;5.53;4.30;;;;;;;14.46;75.53;100608.88;4988767;28;20228;-84
2022/06/22 05:45:14;;;;;;;6.50;4.50;;;;;;;14.59;75.43;100614.97;4980814;28;20204;-83
2022/06/22 05:47:44;;;;;;;6.50;4.27;;;;;;;14.74;75.03;100606.66;4983853;28;20220;-85
2022/06/22 05:50:19;;;;;;;5.50;4.53;;;;;;;14.88;74.60;100609.91;4990911;28;20204;-85
2022/06/22 05:52:50;;;;;;;6.93;4.70;;;;;;;15.04;74.34;100614.88;4986404;28;20315;-84
2022/06/22 05:55:25;;;;;;;4.93;4.20;;;;;;;15.20;73.76;100606.41;4988330;28;20655;-82
2022/06/22 05:57:58;;;;;;;5.73;4.80;;;;;;;15.36;72.80;100606.84;4989115;28;20203;-82
2022/06/22 06:00:28;;;;;;;7.27;4.60;;;;;;;15.52;72.17;100606.38;4990645;28;20583;-81
2022/06/22 06:03:04;;;;;;;4.87;4.40;;;;;;;15.67;71.79;100606.94;4984299;28;20231;-81
2022/06/22 06:05:37;;;;;;;8.67;5.23;;;;;;;15.81;71.26;100599.41;4981799;28;20216;-81
2022/06/22 06:08:10;;;;;;;5.77;4.73;;;;;;;15.99;71.28;100596.97;4989480;28;20283;-81
2022/06/22 06:10:40;;;;;;;8.03;4.77;;;;;;;16.16;70.60;100604.41;4986087;28;20208;-82
2022/06/22 06:13:18;;;;;;;4.77;4.20;;;;;;;16.32;70.54;100611.97;4987405;28;20224;-82
2022/06/22 06:15:48;;;;;;;5.10;4.37;;;;;;;16.49;70.39;100616.72;4987875;28;20802;-83
2022/06/22 06:18:19;;;;;;;7.60;4.90;;;;;;;16.67;69.94;100622.31;4984341;28;20663;-84
2022/06/22 06:20:49;;;;;;;5.77;4.40;;;;;;;16.86;69.55;100629.59;4991839;28;20205;-82
2022/06/22 06:23:19;;;;;;;5.47;4.60;;;;;;;16.99;68.59;100620.31;4988378;28;20228;-83
2022/06/22 06:28:51;;;;;;;5.13;4.60;;;;;;;17.27;68.03;100621.31;4987840;28;20245;-83
2022/06/22 06:31:24;;;;;;;5.57;4.13;;;;;;;17.43;67.77;100617.22;4986585;28;20309;-84
2022/06/22 06:33:52;;;;;;;6.30;4.30;;;;;;;17.59;67.33;100601.31;4984988;28;21092;-85
2022/06/22 06:36:25;;;;;;;6.23;4.27;;;;;;;17.76;66.91;100602.47;4984565;28;20217;-83
2022/06/22 06:38:57;;;;;;;4.80;4.40;;;;;;;17.95;66.44;100597.91;4989740;28;21260;-84
2022/06/22 06:41:30;;;;;;;7.20;4.33;;;;;;;18.10;65.86;100603.66;4987724;28;20279;-82
2022/06/22 06:44:01;;;;;;;8.43;4.73;;;;;;;18.24;65.12;100599.66;4985994;28;20229;-84
2022/06/22 06:46:31;;;;;;;6.73;4.20;;;;;;;18.35;64.73;100594.94;4987445;28;20204;-85
2022/06/22 06:49:11;;;;;;;5.17;4.23;;;;;;;18.49;64.19;100585.50;4981957;28;20213;-84
2022/06/22 06:51:43;;;;;;;5.23;4.40;;;;;;;18.62;63.69;100585.19;4989252;28;20201;-82
2022/06/22 06:54:17;;;;;;;8.37;4.70;;;;;;;18.78;64.02;100598.03;4989124;28;20224;-84
2022/06/22 06:56:49;;;;;;;7.23;4.60;;;;;;;18.93;63.26;100613.53;4991472;28;20205;-84
2022/06/22 06:59:20;;;;;;;5.87;4.67;;;;;;;19.11;63.21;100615.41;4982887;28;20218;-84
2022/06/22 07:01:49;;;;;;;5.33;4.17;;;;;;;19.27;62.46;100599.38;4987327;28;20274;-84
2022/06/22 07:04:20;;;;;;;7.63;4.77;;;;;;;19.42;61.42;100598.69;4988532;28;20230;-85
2022/06/22 07:06:47;;;;;;;6.07;4.83;;;;;;;19.57;61.69;100590.03;4987819;28;20217;-85
2022/06/22 07:09:19;;;;;;;5.30;4.53;;;;;;;19.71;61.18;100594.88;4986308;28;20208;-82
2022/06/22 07:11:49;;;;;;;5.00;4.50;;;;;;;19.84;60.54;100586.38;4995427;28;20205;-85
2022/06/22 07:14:22;;;;;;;6.40;4.43;;;;;;;19.98;60.54;100585.78;4987069;28;20279;-85
2022/06/22 07:16:53;;;;;;;5.77;4.70;;;;;;;20.15;59.89;100592.16;4994637;28;20207;-84
2022/06/22 07:19:25;;;;;;;6.67;4.67;;;;;;;20.31;59.25;100592.22;4981322;28;20208;-85
2022/06/22 07:21:58;;;;;;;6.27;4.20;;;;;;;20.40;59.00;100583.19;4987087;28;20681;-85
2022/06/22 07:24:30;;;;;;;8.23;4.77;;;;;;;20.53;58.44;100591.69;4982992;28;21117;-85
2022/06/22 07:27:03;;;;;;;7.20;4.17;;;;;;;20.66;58.31;100602.06;4983462;28;20211;-83
2022/06/22 07:29:39;;;;;;;5.73;3.90;;;;;;;20.83;57.84;100597.53;4982693;28;20705;-82
2022/06/22 07:32:15;;;;;;;7.57;4.40;;;;;;;20.98;57.29;100591.31;4985366;28;20208;-83
2022/06/22 07:34:50;;;;;;;7.73;3.47;;;;;;;21.14;56.96;100588.66;4980256;28;20221;-85
2022/06/22 07:37:24;;;;;;;4.47;3.87;;;;;;;21.34;56.40;100601.91;4982325;28;20217;-84
2022/06/22 07:39:57;;;;;;;5.18;3.92;;;;;;;21.47;55.76;100596.88;4985896;28;20575;-85
2022/06/22 07:42:24;;;;;;;4.40;3.57;;;;;;;21.64;55.46;100589.59;4987016;28;20217;-85
2022/06/22 07:44:52;;;;;;;6.13;3.45;;;;;;;21.76;54.78;100580.94;4983714;28;20302;-86
2022/06/22 07:47:27;;;;;;;6.20;3.30;;;;;;;21.90;54.51;100587.50;4979896;28;20235;-82
2022/06/22 07:50:00;;;;;;;3.65;2.80;;;;;;;22.03;53.21;100581.59;4982439;28;20213;-82
2022/06/22 07:52:32;;;;;;;4.47;3.33;;;;;;;22.11;52.15;100584.28;4972956;28;20230;-82
2022/06/22 07:55:04;;;;;;;7.50;3.10;;;;;;;22.17;52.08;100594.44;4978594;28;20215;-84
2022/06/22 07:57:38;;;;;;;3.85;2.97;;;;;;;22.24;52.25;100591.88;4978683;28;20566;-83
2022/06/22 08:00:11;;;;;;;4.05;3.38;;;;;;;22.33;52.27;100582.69;4983239;28;20210;-83
2022/06/22 08:02:47;;;;;;;4.75;3.38;;;;;;;22.46;52.37;100588.41;4979518;28;20283;-85
2022/06/22 08:05:19;;;;;;;5.47;3.42;;;;;;;22.60;51.81;100589.53;4979512;28;20662;-83
2022/06/22 08:07:50;;;;;;;4.43;2.80;;;;;;;22.71;51.01;100584.59;4981659;28;20218;-84
2022/06/22 08:10:21;;;;;;;4.05;3.03;;;;;;;22.84;50.72;100581.31;4981825;28;20297;-84
2022/06/22 08:13:00;;;;;;;3.97;3.08;;;;;;;23.03;50.66;100574.59;4978476;28;20227;-85
2022/06/22 08:15:30;;;;;;;4.70;2.97;;;;;;;23.20;49.60;100571.56;4983169;28;20211;-84
2022/06/22 08:17:59;;;;;;;4.88;3.03;;;;;;;23.28;49.17;100567.97;4980632;28;20684;-83
2022/06/22 08:20:30;;;;;;;9.18;3.20;;;;;;;23.38;48.96;100563.13;4980283;28;20210;-83
2022/06/22 08:22:59;;;;;;;4.45;2.85;;;;;;;23.51;48.94;100568.81;4984051;28;20230;-84
2022/06/22 08:25:26;;;;;;;5.45;3.28;;;;;;;23.62;48.23;100564.84;4981403;28;20203;-83
2022/06/22 08:27:53;;;;;;;4.78;2.95;;;;;;;23.74;48.25;100570.66;4982617;28;20223;-83
2022/06/22 08:30:20;;;;;;;5.60;3.40;;;;;;;23.88;48.34;100578.00;4978568;28;20214;-83
2022/06/22 08:32:53;;;;;;;5.07;2.88;;;;;;;23.97;47.09;100574.19;4985108;28;20228;-83
2022/06/22 08:35:23;;;;;;;5.68;3.00;;;;;;;24.01;46.96;100574.63;4981331;28;20221;-84
2022/06/22 08:37:58;;;;;;;4.30;2.85;;;;;;;24.07;46.73;100572.03;4978596;28;20199;-84
2022/06/22 08:40:34;;;;;;;4.40;2.55;;;;;;;24.16;46.51;100568.19;4986540;28;20218;-85
2022/06/22 08:43:07;;;;;;;5.25;2.38;;;;;;;24.25;45.91;100570.84;4983547;28;20708;-83
2022/06/22 08:46:09;;;;;;;4.65;2.90;;;;;;;24.32;45.75;100566.34;4983436;28;20663;-84
2022/06/22 08:48:55;;;;;;;4.20;2.60;;;;;;;24.33;45.29;100570.75;4977514;28;20218;-86
2022/06/22 08:51:40;;;;;;;8.38;2.80;;;;;;;24.35;45.24;100564.09;4980491;28;20715;-82
2022/06/22 08:54:42;;;;;;;3.53;2.25;;;;;;;24.46;45.49;100568.22;4983386;28;20825;-86
2022/06/22 08:57:17;;;;;;;3.38;2.20;;;;;;;24.54;44.60;100562.69;4956784;28;20210;-83
2022/06/22 08:59:57;;;;;;;2.25;1.90;;;;;;;24.64;44.24;100560.47;4986531;28;20211;-83
2022/06/22 09:02:49;;;;;;;4.00;1.92;;;;;;;24.74;42.92;100555.56;4987165;28;20203;-85
2022/06/22 09:05:39;;;;;;;4.05;2.17;;;;;;;24.81;42.43;100553.78;4989210;28;20207;-82
2022/06/22 09:08:28;;;;;;;3.97;1.77;;;;;;;24.88;42.04;100549.25;4986356;28;20235;-84
2022/06/22 09:11:09;;;;;;;3.05;1.55;;;;;;;24.99;42.20;100545.22;4987334;28;20817;-85
2022/06/22 09:14:17;;;;;;;3.88;1.88;;;;;;;25.17;41.81;100552.94;4990505;28;20228;-84
2022/06/22 09:17:17;;;;;;;2.88;2.10;;;;;;;25.30;41.14;100550.34;4978369;28;20215;-86
2022/06/22 09:19:59;;;;;;;3.65;1.50;;;;;;;25.41;39.90;100555.28;4988992;28;20213;-86
2022/06/22 09:22:42;;;;;;;2.95;1.80;;;;;;;25.50;39.50;100559.53;4990455;28;20213;-85
2022/06/22 09:25:18;;;;;;;3.05;1.88;;;;;;;25.59;39.80;100566.56;4987372;28;20447;-85
2022/06/22 09:27:56;;;;;;;2.97;1.73;;;;;;;25.68;39.79;100561.81;4984955;28;20258;-85
2022/06/22 09:30:41;;;;;;;3.85;1.70;;;;;;;25.80;38.89;100562.13;4983468;28;20215;-84
2022/06/22 09:33:37;;;;;;;2.75;1.25;;;;;;;25.83;36.09;100568.03;4988763;28;20686;-86
2022/06/22 09:36:23;;;;;;;3.65;1.42;;;;;;;25.92;36.62;100566.00;4983109;28;20210;-86
2022/06/22 09:39:11;;;;;;;3.53;1.75;;;;;;;26.07;36.72;100564.00;4987785;28;20199;-85
2022/06/22 09:41:54;;;;;;;3.83;1.65;;;;;;;26.25;36.37;100575.25;4988716;28;20191;-84
2022/06/22 09:44:53;;;;;;;3.20;1.35;;;;;;;26.35;35.91;100574.91;4985960;28;20282;-83
2022/06/22 09:47:35;;;;;;;2.65;1.40;;;;;;;26.37;35.90;100585.63;4971593;28;20213;-84
2022/06/22 09:50:35;;;;;;;2.75;1.60;;;;;;;26.40;36.32;100585.22;4983065;28;20663;-83
2022/06/22 09:53:36;;;;;;;2.85;1.45;;;;;;;26.44;36.76;100581.06;4944995;28;20578;-82
2022/06/22 09:56:22;;;;;;;2.75;1.63;;;;;;;26.48;36.33;100572.28;4991459;28;20660;-83
2022/06/22 09:59:22;;;;;;;2.08;1.30;;;;;;;26.47;35.85;100567.00;4987791;28;20686;-85
2022/06/22 10:01:59;;;;;;;2.60;1.58;;;;;;;26.44;35.88;100565.53;4989648;28;20219;-84
2022/06/22 10:04:57;;;;;;;5.00;1.92;;;;;;;26.45;35.84;100569.09;4993019;28;20281;-85
2022/06/22 10:07:41;;;;;;;3.88;1.83;;;;;;;26.46;35.88;100570.78;4997147;28;20708;-83
2022/06/22 10:10:18;;;;;;;2.88;1.55;;;;;;;26.47;35.94;100572.47;4989933;28;20235;-83
2022/06/22 10:13:07;;;;;;;3.00;1.42;;;;;;;26.46;35.50;100577.09;4992075;28;20224;-86
2022/06/22 10:15:47;;;;;;;3.78;1.77;;;;;;;26.43;35.65;100566.56;4994685;28;20299;-85
2022/06/22 10:18:36;;;;;;;4.13;1.75;;;;;;;26.46;35.16;100573.50;4993702;28;20211;-83
2022/06/22 10:21:12;;;;;;;2.80;1.60;;;;;;;26.50;35.09;100569.34;4987706;28;20218;-85
2022/06/22 10:23:50;;;;;;;3.47;2.00;;;;;;;26.60;35.12;100564.34;4986329;28;20350;-84
2022/06/22 10:26:34;;;;;;;3.50;2.10;;;;;;;26.65;35.43;100575.50;4986625;28;20227;-85
2022/06/22 10:29:23;;;;;;;3.90;1.88;;;;;;;26.64;35.22;100565.63;4982312;28;20231;-85
2022/06/22 10:32:05;;;;;;;4.00;1.90;;;;;;;26.65;35.47;100563.72;4980771;28;20326;-85
2022/06/22 10:34:45;;;;;;;2.45;1.60;;;;;;;26.72;35.45;100554.50;4980702;28;20314;-83
2022/06/22 10:37:41;;;;;;;3.58;2.05;;;;;;;26.77;35.42;100552.00;4984894;28;20657;-86
2022/06/22 10:46:39;;;;;;;2.88;1.63;;;;;;;26.89;35.27;100546.78;4982114;28;20913;-86
2022/06/22 10:49:30;;;;;;;2.42;1.40;;;;;;;26.87;34.15;100562.56;4983488;28;20668;-85
2022/06/22 10:52:20;;;;;;;4.32;1.83;;;;;;;26.81;34.20;100555.16;4985968;28;20226;-86
2022/06/22 10:55:23;;;;;;;4.50;1.75;;;;;;;26.87;34.52;100557.91;4977510;28;20718;-85
2022/06/22 10:58:16;;;;;;;3.45;1.70;;;;;;;26.96;34.11;100569.53;4980318;28;20677;-84
2022/06/22 11:00:57;;;;;;;3.10;1.58;;;;;;;26.99;33.72;100565.56;4986557;28;20291;-85
2022/06/22 11:03:59;;;;;;;4.38;1.60;;;;;;;27.04;33.62;100576.72;4981382;28;20669;-85
2022/06/22 11:06:46;;;;;;;3.80;1.55;;;;;;;27.06;33.09;100574.59;4938874;28;20222;-85
2022/06/22 11:09:37;;;;;;;3.97;1.75;;;;;;;27.10;33.03;100567.69;4982736;28;20249;-85
2022/06/22 11:12:27;;;;;;;1.67;1.20;;;;;;;27.22;33.11;100563.31;4980684;28;20258;-85
2022/06/22 11:15:32;;;;;;;3.58;1.50;;;;;;;27.38;32.49;100573.84;4976941;28;20219;-85
2022/06/22 11:18:21;;;;;;;3.90;1.50;;;;;;;27.46;31.63;100572.78;4977587;28;20203;-85
2022/06/22 11:21:00;;;;;;;1.98;1.27;;;;;;;27.57;31.07;100570.31;4979567;28;20295;-85
2022/06/22 11:23:43;;;;;;;3.72;1.60;;;;;;;27.68;31.10;100568.00;4982738;28;20262;-85
2022/06/22 11:33:14;;;;;;;5.07;1.40;;;;;;;28.00;29.67;100567.13;4976682;28;20238;-86
2022/06/22 11:35:51;;;;;;;2.17;1.13;;;;;;;28.08;29.60;100575.13;4983966;28;20658;-86
2022/06/22 11:38:47;;;;;;;3.13;1.33;;;;;;;28.26;30.04;100561.66;4980081;28;20298;-84
2022/06/22 11:41:31;;;;;;;1.48;1.15;;;;;;;28.43;29.74;100559.28;4979710;28;20955;-86
2022/06/22 11:44:17;;;;;;;2.03;1.33;;;;;;;28.52;29.69;100557.13;4979873;28;20586;-85
2022/06/22 11:46:54;;;;;;;2.20;1.23;;;;;;;28.53;30.40;100551.44;5096702;27;20554;-72
2022/06/22 11:49:45;;;;;;;3.92;1.42;;;;;;;28.58;29.88;100554.38;5075261;28;20295;-71
2022/06/22 11:52:56;;;;;;;3.63;1.42;;;;;;;28.59;29.10;100552.47;5079666;28;20292;-71
2022/06/22 11:55:26;;;;;;;2.42;1.40;;;;;;;28.58;29.54;100548.88;5084594;28;20295;-71
2022/06/22 11:58:32;;;;;;;3.10;1.55;;;;;;;28.58;29.35;100542.56;5084445;28;20862;-72
2022/06/22 12:01:20;;;;;;;2.72;1.30;;;;;;;28.49;29.29;100532.91;5092689;22;20231;-72
2022/06/22 12:04:20;;;;;;;1.50;1.10;;;;;;;28.49;29.23;100536.47;5080900;28;20204;-72
2022/06/22 12:07:19;;;;;;;2.45;1.30;;;;;;;28.55;29.59;100526.56;5080169;28;20286;-72
2022/06/22 12:10:00;;;;;;;3.10;1.80;;;;;;;28.53;29.56;100517.72;5074742;28;20229;-72
2022/06/22 12:12:56;;;;;;;3.88;1.45;;;;;;;28.50;29.48;100520.88;5060823;28;20397;-72
2022/06/22 12:15:47;;;;;;;2.33;1.13;;;;;;;28.50;30.11;100515.41;5056727;28;20197;-72
2022/06/22 12:18:39;;;;;;;1.63;1.10;;;;;;;28.51;28.33;100514.34;5058949;28;20205;-72
2022/06/22 12:21:27;;;;;;;2.28;1.40;;;;;;;28.47;28.56;100521.34;5058642;28;20676;-73
2022/06/22 12:23:59;;;;;;;3.95;1.40;;;;;;;28.44;28.18;100508.06;5064189;28;20201;-71
2022/06/22 12:26:36;;;;;;;3.13;1.60;;;;;;;28.45;28.47;100504.28;5056695;28;20595;-71
2022/06/22 12:29:23;;;;;;;2.85;1.25;;;;;;;28.54;28.70;100497.47;5059202;28;20204;-73
2022/06/22 12:32:12;;;;;;;2.38;1.30;;;;;;;28.59;27.88;100495.78;5057263;28;20580;-72